sensor_id;sensor_type;location;lat;lon;timestamp;P1;durP1;ratioP1;P2;durP2;ratioP2
38994;SDS011;24769;18.712;99.000;2023-02-01T00:00:58;117.75;;;114.50;;
38994;SDS011;24769;18.712;99.000;2023-02-01T00:03:30;119.25;;;117.00;;
38994;SDS011;24769;18.712;99.000;2023-02-01T00:05:57;114.25;;;113.50;;
38994;SDS011;24769;18.712;99.000;2023-02-01T00:08:24;126.50;;;123.25;;
38994;SDS011;24769;18.712;99.000;2023-02-01T00:11:02;125.00;;;122.00;;
38994;SDS011;24769;18.712;99.000;2023-02-01T00:13:32;119.25;;;113.50;;
38994;SDS011;24769;18.712;99.000;2023-02-01T00:16:06;123.50;;;116.75;;
38994;SDS011;24769;18.712;99.000;2023-02-01T00:18:44;130.50;;;126.75;;
38994;SDS011;24769;18.712;99.000;2023-02-01T00:21:12;129.75;;;123.50;;
38994;SDS011;24769;18.712;99.000;2023-02-01T00:23:40;129.00;;;127.75;;
38994;SDS011;24769;18.712;99.000;2023-02-01T00:26:11;129.75;;;124.75;;
38994;SDS011;24769;18.712;99.000;2023-02-01T00:28:51;119.00;;;117.25;;
38994;SDS011;24769;18.712;99.000;2023-02-01T00:31:17;122.50;;;122.50;;
38994;SDS011;24769;18.712;99.000;2023-02-01T00:33:47;122.00;;;121.25;;
38994;SDS011;24769;18.712;99.000;2023-02-01T00:36:15;127.00;;;124.25;;
38994;SDS011;24769;18.712;99.000;2023-02-01T00:38:41;123.75;;;120.00;;
38994;SDS011;24769;18.712;99.000;2023-02-01T00:41:11;123.50;;;120.75;;
38994;SDS011;24769;18.712;99.000;2023-02-01T00:43:38;140.75;;;133.50;;
38994;SDS011;24769;18.712;99.000;2023-02-01T00:46:05;130.00;;;124.25;;
38994;SDS011;24769;18.712;99.000;2023-02-01T00:48:32;132.50;;;130.50;;
38994;SDS011;24769;18.712;99.000;2023-02-01T00:51:06;131.50;;;127.25;;
38994;SDS011;24769;18.712;99.000;2023-02-01T00:53:34;150.75;;;142.75;;
38994;SDS011;24769;18.712;99.000;2023-02-01T00:56:02;144.50;;;136.75;;
38994;SDS011;24769;18.712;99.000;2023-02-01T00:58:30;148.25;;;142.50;;
38994;SDS011;24769;18.712;99.000;2023-02-01T01:01:08;149.50;;;146.75;;
38994;SDS011;24769;18.712;99.000;2023-02-01T01:03:36;146.33;;;142.00;;
38994;SDS011;24769;18.712;99.000;2023-02-01T01:06:06;147.25;;;143.50;;
38994;SDS011;24769;18.712;99.000;2023-02-01T01:08:38;137.50;;;136.75;;
38994;SDS011;24769;18.712;99.000;2023-02-01T01:11:06;132.25;;;130.75;;
38994;SDS011;24769;18.712;99.000;2023-02-01T01:13:35;132.25;;;130.25;;
38994;SDS011;24769;18.712;99.000;2023-02-01T01:16:02;124.25;;;120.75;;
38994;SDS011;24769;18.712;99.000;2023-02-01T01:18:31;126.00;;;124.00;;
38994;SDS011;24769;18.712;99.000;2023-02-01T01:20:59;125.75;;;122.50;;
38994;SDS011;24769;18.712;99.000;2023-02-01T01:23:27;125.25;;;121.00;;
38994;SDS011;24769;18.712;99.000;2023-02-01T01:25:54;135.25;;;132.75;;
38994;SDS011;24769;18.712;99.000;2023-02-01T01:28:21;127.00;;;125.20;;
38994;SDS011;24769;18.712;99.000;2023-02-01T01:30:47;110.60;;;110.60;;
38994;SDS011;24769;18.712;99.000;2023-02-01T01:33:14;121.40;;;119.80;;
38994;SDS011;24769;18.712;99.000;2023-02-01T01:35:41;121.40;;;118.00;;
38994;SDS011;24769;18.712;99.000;2023-02-01T01:38:08;121.40;;;117.40;;
38994;SDS011;24769;18.712;99.000;2023-02-01T01:40:36;121.20;;;119.60;;
38994;SDS011;24769;18.712;99.000;2023-02-01T01:43:05;129.80;;;127.80;;
38994;SDS011;24769;18.712;99.000;2023-02-01T01:45:39;128.75;;;125.25;;
38994;SDS011;24769;18.712;99.000;2023-02-01T01:51:03;136.00;;;134.00;;
38994;SDS011;24769;18.712;99.000;2023-02-01T01:53:36;128.80;;;128.20;;
38994;SDS011;24769;18.712;99.000;2023-02-01T01:56:10;141.40;;;138.60;;
38994;SDS011;24769;18.712;99.000;2023-02-01T01:58:38;149.00;;;142.80;;
38994;SDS011;24769;18.712;99.000;2023-02-01T02:01:04;143.00;;;141.00;;
38994;SDS011;24769;18.712;99.000;2023-02-01T02:03:39;138.20;;;136.60;;
38994;SDS011;24769;18.712;99.000;2023-02-01T02:06:14;134.80;;;131.60;;
38994;SDS011;24769;18.712;99.000;2023-02-01T02:08:43;136.60;;;132.40;;
38994;SDS011;24769;18.712;99.000;2023-02-01T02:11:10;146.40;;;142.20;;
38994;SDS011;24769;18.712;99.000;2023-02-01T02:13:42;139.00;;;134.60;;
38994;SDS011;24769;18.712;99.000;2023-02-01T02:22:45;114.20;;;111.20;;
38994;SDS011;24769;18.712;99.000;2023-02-01T02:27:38;111.80;;;111.00;;
38994;SDS011;24769;18.712;99.000;2023-02-01T02:33:19;122.00;;;117.60;;
38994;SDS011;24769;18.712;99.000;2023-02-01T02:38:36;119.00;;;117.60;;
38994;SDS011;24769;18.712;99.000;2023-02-01T02:41:19;115.00;;;113.20;;
38994;SDS011;24769;18.712;99.000;2023-02-01T02:44:17;110.00;;;107.40;;
38994;SDS011;24769;18.712;99.000;2023-02-01T02:47:23;100.80;;;99.80;;
38994;SDS011;24769;18.712;99.000;2023-02-01T02:53:12;102.40;;;102.40;;
38994;SDS011;24769;18.712;99.000;2023-02-01T02:56:07;112.40;;;109.40;;
38994;SDS011;24769;18.712;99.000;2023-02-01T02:58:54;103.00;;;102.80;;
38994;SDS011;24769;18.712;99.000;2023-02-01T03:01:41;107.00;;;104.80;;
38994;SDS011;24769;18.712;99.000;2023-02-01T03:04:26;112.60;;;109.20;;
38994;SDS011;24769;18.712;99.000;2023-02-01T03:06:53;102.80;;;100.80;;
38994;SDS011;24769;18.712;99.000;2023-02-01T03:09:26;103.40;;;102.80;;
38994;SDS011;24769;18.712;99.000;2023-02-01T03:12:00;103.20;;;100.60;;
38994;SDS011;24769;18.712;99.000;2023-02-01T03:14:49;90.40;;;88.60;;
38994;SDS011;24769;18.712;99.000;2023-02-01T03:17:27;103.40;;;102.60;;
38994;SDS011;24769;18.712;99.000;2023-02-01T03:19:58;91.60;;;91.20;;
38994;SDS011;24769;18.712;99.000;2023-02-01T03:22:29;103.40;;;102.20;;
38994;SDS011;24769;18.712;99.000;2023-02-01T03:24:59;104.60;;;103.40;;
38994;SDS011;24769;18.712;99.000;2023-02-01T03:27:32;105.00;;;103.60;;
38994;SDS011;24769;18.712;99.000;2023-02-01T03:30:21;105.00;;;104.20;;
38994;SDS011;24769;18.712;99.000;2023-02-01T03:33:03;109.40;;;105.80;;
38994;SDS011;24769;18.712;99.000;2023-02-01T03:35:59;97.00;;;95.40;;
38994;SDS011;24769;18.712;99.000;2023-02-01T03:38:51;103.80;;;100.40;;
38994;SDS011;24769;18.712;99.000;2023-02-01T03:44:19;107.40;;;104.20;;
38994;SDS011;24769;18.712;99.000;2023-02-01T03:49:37;96.20;;;95.00;;
38994;SDS011;24769;18.712;99.000;2023-02-01T03:52:10;102.80;;;99.00;;
38994;SDS011;24769;18.712;99.000;2023-02-01T03:54:42;98.40;;;98.40;;
38994;SDS011;24769;18.712;99.000;2023-02-01T03:57:12;104.20;;;98.80;;
38994;SDS011;24769;18.712;99.000;2023-02-01T03:59:42;84.80;;;83.80;;
38994;SDS011;24769;18.712;99.000;2023-02-01T04:02:10;99.40;;;97.80;;
38994;SDS011;24769;18.712;99.000;2023-02-01T04:04:37;99.00;;;95.80;;
38994;SDS011;24769;18.712;99.000;2023-02-01T04:07:04;103.40;;;102.20;;
38994;SDS011;24769;18.712;99.000;2023-02-01T04:09:31;90.00;;;90.00;;
38994;SDS011;24769;18.712;99.000;2023-02-01T04:11:57;83.60;;;83.60;;
38994;SDS011;24769;18.712;99.000;2023-02-01T04:14:24;100.00;;;97.40;;
38994;SDS011;24769;18.712;99.000;2023-02-01T04:16:51;103.20;;;101.40;;
38994;SDS011;24769;18.712;99.000;2023-02-01T04:19:17;105.80;;;101.40;;
38994;SDS011;24769;18.712;99.000;2023-02-01T04:21:44;93.60;;;92.40;;
38994;SDS011;24769;18.712;99.000;2023-02-01T04:24:10;96.00;;;94.80;;
38994;SDS011;24769;18.712;99.000;2023-02-01T04:26:37;91.20;;;91.20;;
38994;SDS011;24769;18.712;99.000;2023-02-01T04:29:03;97.60;;;95.80;;
38994;SDS011;24769;18.712;99.000;2023-02-01T04:31:30;98.80;;;96.00;;
38994;SDS011;24769;18.712;99.000;2023-02-01T04:33:57;100.40;;;99.80;;
38994;SDS011;24769;18.712;99.000;2023-02-01T04:36:23;96.60;;;95.60;;
38994;SDS011;24769;18.712;99.000;2023-02-01T04:38:50;99.40;;;98.40;;
38994;SDS011;24769;18.712;99.000;2023-02-01T04:41:17;94.80;;;94.40;;
38994;SDS011;24769;18.712;99.000;2023-02-01T04:43:48;97.00;;;96.20;;
38994;SDS011;24769;18.712;99.000;2023-02-01T04:46:17;93.00;;;92.40;;
38994;SDS011;24769;18.712;99.000;2023-02-01T04:48:43;91.60;;;91.00;;
38994;SDS011;24769;18.712;99.000;2023-02-01T04:51:10;98.40;;;96.60;;
38994;SDS011;24769;18.712;99.000;2023-02-01T04:53:37;98.40;;;97.00;;
38994;SDS011;24769;18.712;99.000;2023-02-01T04:56:04;95.00;;;93.40;;
38994;SDS011;24769;18.712;99.000;2023-02-01T04:58:31;100.40;;;97.40;;
38994;SDS011;24769;18.712;99.000;2023-02-01T05:00:58;98.20;;;96.00;;
38994;SDS011;24769;18.712;99.000;2023-02-01T05:03:24;93.00;;;92.20;;
38994;SDS011;24769;18.712;99.000;2023-02-01T05:05:51;94.80;;;93.80;;
38994;SDS011;24769;18.712;99.000;2023-02-01T05:08:18;90.00;;;89.60;;
38994;SDS011;24769;18.712;99.000;2023-02-01T05:10:47;91.60;;;90.80;;
38994;SDS011;24769;18.712;99.000;2023-02-01T05:13:14;89.20;;;89.20;;
38994;SDS011;24769;18.712;99.000;2023-02-01T05:15:59;94.60;;;93.00;;
38994;SDS011;24769;18.712;99.000;2023-02-01T05:18:25;95.60;;;94.60;;
38994;SDS011;24769;18.712;99.000;2023-02-01T05:20:52;93.80;;;93.80;;
38994;SDS011;24769;18.712;99.000;2023-02-01T05:23:19;91.80;;;88.80;;
38994;SDS011;24769;18.712;99.000;2023-02-01T05:25:45;92.00;;;90.00;;
38994;SDS011;24769;18.712;99.000;2023-02-01T05:28:12;94.40;;;92.80;;
38994;SDS011;24769;18.712;99.000;2023-02-01T05:30:38;96.40;;;93.80;;
38994;SDS011;24769;18.712;99.000;2023-02-01T05:33:05;97.00;;;95.80;;
38994;SDS011;24769;18.712;99.000;2023-02-01T05:35:32;98.60;;;97.60;;
38994;SDS011;24769;18.712;99.000;2023-02-01T05:37:59;94.00;;;92.00;;
38994;SDS011;24769;18.712;99.000;2023-02-01T05:40:25;92.40;;;92.40;;
38994;SDS011;24769;18.712;99.000;2023-02-01T05:42:52;78.00;;;74.80;;
38994;SDS011;24769;18.712;99.000;2023-02-01T05:45:18;85.00;;;84.00;;
38994;SDS011;24769;18.712;99.000;2023-02-01T05:47:45;86.00;;;85.25;;
38994;SDS011;24769;18.712;99.000;2023-02-01T05:50:12;86.75;;;84.75;;
38994;SDS011;24769;18.712;99.000;2023-02-01T05:52:39;91.75;;;90.50;;
38994;SDS011;24769;18.712;99.000;2023-02-01T05:55:05;87.25;;;86.50;;
38994;SDS011;24769;18.712;99.000;2023-02-01T05:57:33;88.00;;;86.75;;
38994;SDS011;24769;18.712;99.000;2023-02-01T06:00:00;81.25;;;79.00;;
38994;SDS011;24769;18.712;99.000;2023-02-01T06:02:27;88.50;;;86.75;;
38994;SDS011;24769;18.712;99.000;2023-02-01T06:04:53;88.75;;;85.75;;
38994;SDS011;24769;18.712;99.000;2023-02-01T06:07:20;83.50;;;82.00;;
38994;SDS011;24769;18.712;99.000;2023-02-01T06:09:47;79.50;;;77.25;;
38994;SDS011;24769;18.712;99.000;2023-02-01T06:12:13;88.25;;;85.25;;
38994;SDS011;24769;18.712;99.000;2023-02-01T06:14:40;92.25;;;90.75;;
38994;SDS011;24769;18.712;99.000;2023-02-01T06:17:08;85.75;;;84.25;;
38994;SDS011;24769;18.712;99.000;2023-02-01T06:19:35;79.75;;;77.50;;
38994;SDS011;24769;18.712;99.000;2023-02-01T06:22:01;83.00;;;80.50;;
38994;SDS011;24769;18.712;99.000;2023-02-01T06:24:31;83.75;;;82.25;;
38994;SDS011;24769;18.712;99.000;2023-02-01T06:26:58;81.75;;;81.00;;
38994;SDS011;24769;18.712;99.000;2023-02-01T06:29:24;83.00;;;80.25;;
38994;SDS011;24769;18.712;99.000;2023-02-01T06:31:51;88.25;;;83.50;;
38994;SDS011;24769;18.712;99.000;2023-02-01T06:34:18;77.50;;;75.00;;
38994;SDS011;24769;18.712;99.000;2023-02-01T06:36:45;80.50;;;80.00;;
38994;SDS011;24769;18.712;99.000;2023-02-01T06:39:11;79.75;;;77.25;;
38994;SDS011;24769;18.712;99.000;2023-02-01T06:41:41;81.25;;;81.00;;
38994;SDS011;24769;18.712;99.000;2023-02-01T06:44:11;79.00;;;75.50;;
38994;SDS011;24769;18.712;99.000;2023-02-01T06:46:37;78.75;;;77.50;;
38994;SDS011;24769;18.712;99.000;2023-02-01T06:49:04;86.00;;;85.25;;
38994;SDS011;24769;18.712;99.000;2023-02-01T06:51:30;92.00;;;91.00;;
38994;SDS011;24769;18.712;99.000;2023-02-01T06:53:57;92.25;;;90.50;;
38994;SDS011;24769;18.712;99.000;2023-02-01T06:56:24;83.00;;;80.25;;
38994;SDS011;24769;18.712;99.000;2023-02-01T06:58:51;84.25;;;79.50;;
38994;SDS011;24769;18.712;99.000;2023-02-01T07:01:18;87.25;;;86.50;;
38994;SDS011;24769;18.712;99.000;2023-02-01T07:03:49;80.75;;;80.25;;
38994;SDS011;24769;18.712;99.000;2023-02-01T07:06:16;77.25;;;74.00;;
38994;SDS011;24769;18.712;99.000;2023-02-01T07:08:44;78.25;;;75.75;;
38994;SDS011;24769;18.712;99.000;2023-02-01T07:11:11;79.50;;;79.00;;
38994;SDS011;24769;18.712;99.000;2023-02-01T07:13:39;78.50;;;77.25;;
38994;SDS011;24769;18.712;99.000;2023-02-01T07:16:08;79.00;;;76.25;;
38994;SDS011;24769;18.712;99.000;2023-02-01T07:18:39;77.25;;;74.75;;
38994;SDS011;24769;18.712;99.000;2023-02-01T07:21:06;75.75;;;71.00;;
38994;SDS011;24769;18.712;99.000;2023-02-01T07:23:33;75.75;;;71.75;;
38994;SDS011;24769;18.712;99.000;2023-02-01T07:26:02;78.25;;;75.25;;
38994;SDS011;24769;18.712;99.000;2023-02-01T07:28:31;76.50;;;71.00;;
38994;SDS011;24769;18.712;99.000;2023-02-01T07:31:06;77.50;;;74.25;;
38994;SDS011;24769;18.712;99.000;2023-02-01T07:33:50;74.00;;;68.50;;
38994;SDS011;24769;18.712;99.000;2023-02-01T07:36:21;77.00;;;73.50;;
38994;SDS011;24769;18.712;99.000;2023-02-01T07:38:48;75.75;;;71.25;;
38994;SDS011;24769;18.712;99.000;2023-02-01T07:41:14;77.50;;;73.50;;
38994;SDS011;24769;18.712;99.000;2023-02-01T07:43:41;79.00;;;77.50;;
38994;SDS011;24769;18.712;99.000;2023-02-01T07:46:09;76.00;;;71.50;;
38994;SDS011;24769;18.712;99.000;2023-02-01T07:48:37;77.50;;;74.25;;
38994;SDS011;24769;18.712;99.000;2023-02-01T07:51:05;77.25;;;74.75;;
38994;SDS011;24769;18.712;99.000;2023-02-01T07:53:34;78.75;;;74.50;;
38994;SDS011;24769;18.712;99.000;2023-02-01T07:56:01;73.25;;;66.00;;
38994;SDS011;24769;18.712;99.000;2023-02-01T07:58:28;78.75;;;75.25;;
38994;SDS011;24769;18.712;99.000;2023-02-01T08:00:55;74.25;;;68.50;;
38994;SDS011;24769;18.712;99.000;2023-02-01T08:03:40;78.25;;;75.00;;
38994;SDS011;24769;18.712;99.000;2023-02-01T08:06:07;76.50;;;72.00;;
38994;SDS011;24769;18.712;99.000;2023-02-01T08:08:33;76.50;;;72.75;;
38994;SDS011;24769;18.712;99.000;2023-02-01T08:11:00;83.00;;;80.75;;
38994;SDS011;24769;18.712;99.000;2023-02-01T08:13:29;78.00;;;75.50;;
38994;SDS011;24769;18.712;99.000;2023-02-01T08:15:59;75.25;;;69.00;;
38994;SDS011;24769;18.712;99.000;2023-02-01T08:18:30;77.75;;;72.00;;
38994;SDS011;24769;18.712;99.000;2023-02-01T08:20:57;76.25;;;71.75;;
38994;SDS011;24769;18.712;99.000;2023-02-01T08:23:33;77.00;;;73.00;;
38994;SDS011;24769;18.712;99.000;2023-02-01T08:26:06;75.50;;;68.75;;
38994;SDS011;24769;18.712;99.000;2023-02-01T08:28:37;76.00;;;70.25;;
38994;SDS011;24769;18.712;99.000;2023-02-01T08:31:08;72.50;;;65.50;;
38994;SDS011;24769;18.712;99.000;2023-02-01T08:33:37;75.00;;;67.00;;
38994;SDS011;24769;18.712;99.000;2023-02-01T08:36:04;75.75;;;70.25;;
38994;SDS011;24769;18.712;99.000;2023-02-01T08:38:34;75.00;;;68.75;;
38994;SDS011;24769;18.712;99.000;2023-02-01T08:41:08;72.75;;;64.50;;
38994;SDS011;24769;18.712;99.000;2023-02-01T08:43:43;75.25;;;70.50;;
38994;SDS011;24769;18.712;99.000;2023-02-01T08:46:10;71.75;;;63.75;;
38994;SDS011;24769;18.712;99.000;2023-02-01T08:48:38;73.75;;;66.50;;
38994;SDS011;24769;18.712;99.000;2023-02-01T08:51:06;74.00;;;66.25;;
38994;SDS011;24769;18.712;99.000;2023-02-01T08:53:35;72.75;;;65.75;;
38994;SDS011;24769;18.712;99.000;2023-02-01T08:56:03;66.25;;;55.50;;
38994;SDS011;24769;18.712;99.000;2023-02-01T08:58:30;68.00;;;56.75;;
38994;SDS011;24769;18.712;99.000;2023-02-01T09:00:57;62.25;;;51.50;;
38994;SDS011;24769;18.712;99.000;2023-02-01T09:03:27;62.20;;;51.20;;
38994;SDS011;24769;18.712;99.000;2023-02-01T09:05:59;66.00;;;53.75;;
38994;SDS011;24769;18.712;99.000;2023-02-01T09:08:30;63.50;;;52.50;;
38994;SDS011;24769;18.712;99.000;2023-02-01T09:11:01;66.00;;;54.25;;
38994;SDS011;24769;18.712;99.000;2023-02-01T09:13:28;62.25;;;51.50;;
38994;SDS011;24769;18.712;99.000;2023-02-01T09:15:55;64.50;;;53.00;;
38994;SDS011;24769;18.712;99.000;2023-02-01T09:18:22;67.75;;;57.25;;
38994;SDS011;24769;18.712;99.000;2023-02-01T09:20:49;62.00;;;51.00;;
38994;SDS011;24769;18.712;99.000;2023-02-01T09:23:15;67.00;;;55.75;;
38994;SDS011;24769;18.712;99.000;2023-02-01T09:25:42;64.25;;;52.50;;
38994;SDS011;24769;18.712;99.000;2023-02-01T09:28:09;66.50;;;53.50;;
38994;SDS011;24769;18.712;99.000;2023-02-01T09:30:36;62.50;;;51.25;;
38994;SDS011;24769;18.712;99.000;2023-02-01T09:33:03;62.25;;;51.00;;
38994;SDS011;24769;18.712;99.000;2023-02-01T09:35:29;63.25;;;52.25;;
38994;SDS011;24769;18.712;99.000;2023-02-01T09:37:56;63.50;;;52.25;;
38994;SDS011;24769;18.712;99.000;2023-02-01T09:40:23;63.00;;;52.00;;
38994;SDS011;24769;18.712;99.000;2023-02-01T09:45:32;57.50;;;48.25;;
38994;SDS011;24769;18.712;99.000;2023-02-01T09:48:17;64.00;;;52.00;;
38994;SDS011;24769;18.712;99.000;2023-02-01T09:50:49;60.50;;;49.75;;
38994;SDS011;24769;18.712;99.000;2023-02-01T09:56:00;61.00;;;50.20;;
38994;SDS011;24769;18.712;99.000;2023-02-01T09:58:37;62.50;;;51.50;;
38994;SDS011;24769;18.712;99.000;2023-02-01T10:01:12;63.75;;;51.50;;
38994;SDS011;24769;18.712;99.000;2023-02-01T10:03:47;65.25;;;54.00;;
38994;SDS011;24769;18.712;99.000;2023-02-01T10:06:37;60.50;;;50.25;;
38994;SDS011;24769;18.712;99.000;2023-02-01T10:26:37;68.00;;;55.25;;
38994;SDS011;24769;18.712;99.000;2023-02-01T10:29:17;64.25;;;52.50;;
38994;SDS011;24769;18.712;99.000;2023-02-01T10:31:46;65.00;;;53.25;;
38994;SDS011;24769;18.712;99.000;2023-02-01T10:39:54;66.75;;;54.75;;
38994;SDS011;24769;18.712;99.000;2023-02-01T10:42:26;67.50;;;56.50;;
38994;SDS011;24769;18.712;99.000;2023-02-01T10:44:58;65.50;;;54.50;;
38994;SDS011;24769;18.712;99.000;2023-02-01T10:47:27;62.75;;;51.75;;
38994;SDS011;24769;18.712;99.000;2023-02-01T10:52:31;64.00;;;53.00;;
38994;SDS011;24769;18.712;99.000;2023-02-01T10:57:58;67.75;;;56.25;;
38994;SDS011;24769;18.712;99.000;2023-02-01T11:05:47;62.75;;;52.50;;
38994;SDS011;24769;18.712;99.000;2023-02-01T11:08:17;72.50;;;62.75;;
38994;SDS011;24769;18.712;99.000;2023-02-01T11:10:45;67.50;;;55.50;;
38994;SDS011;24769;18.712;99.000;2023-02-01T11:13:16;67.25;;;55.00;;
38994;SDS011;24769;18.712;99.000;2023-02-01T11:15:45;67.00;;;54.25;;
38994;SDS011;24769;18.712;99.000;2023-02-01T11:18:20;72.00;;;58.75;;
38994;SDS011;24769;18.712;99.000;2023-02-01T11:20:53;69.50;;;58.25;;
38994;SDS011;24769;18.712;99.000;2023-02-01T11:23:23;71.25;;;60.75;;
38994;SDS011;24769;18.712;99.000;2023-02-01T11:25:59;69.25;;;56.75;;
38994;SDS011;24769;18.712;99.000;2023-02-01T11:28:33;75.75;;;69.25;;
38994;SDS011;24769;18.712;99.000;2023-02-01T11:31:04;70.50;;;60.50;;
38994;SDS011;24769;18.712;99.000;2023-02-01T11:33:35;73.75;;;63.50;;
38994;SDS011;24769;18.712;99.000;2023-02-01T11:36:08;74.00;;;65.60;;
38994;SDS011;24769;18.712;99.000;2023-02-01T11:38:39;74.50;;;65.25;;
38994;SDS011;24769;18.712;99.000;2023-02-01T11:46:26;76.40;;;69.40;;
38994;SDS011;24769;18.712;99.000;2023-02-01T11:49:13;76.20;;;68.20;;
38994;SDS011;24769;18.712;99.000;2023-02-01T11:51:52;71.80;;;62.60;;
38994;SDS011;24769;18.712;99.000;2023-02-01T12:05:58;79.20;;;73.80;;
38994;SDS011;24769;18.712;99.000;2023-02-01T12:13:56;83.20;;;81.00;;
38994;SDS011;24769;18.712;99.000;2023-02-01T12:19:26;94.00;;;92.40;;
38994;SDS011;24769;18.712;99.000;2023-02-01T12:22:03;82.60;;;80.80;;
38994;SDS011;24769;18.712;99.000;2023-02-01T12:36:00;84.00;;;83.40;;
38994;SDS011;24769;18.712;99.000;2023-02-01T12:41:45;90.40;;;88.60;;
38994;SDS011;24769;18.712;99.000;2023-02-01T12:47:39;88.40;;;87.00;;
38994;SDS011;24769;18.712;99.000;2023-02-01T12:50:03;90.00;;;88.00;;
38994;SDS011;24769;18.712;99.000;2023-02-01T12:52:45;83.60;;;82.40;;
38994;SDS011;24769;18.712;99.000;2023-02-01T12:57:54;82.60;;;79.60;;
38994;SDS011;24769;18.712;99.000;2023-02-01T13:03:07;87.60;;;86.80;;
38994;SDS011;24769;18.712;99.000;2023-02-01T13:06:24;90.60;;;90.40;;
38994;SDS011;24769;18.712;99.000;2023-02-01T13:17:09;82.40;;;79.60;;
38994;SDS011;24769;18.712;99.000;2023-02-01T13:19:59;95.80;;;91.20;;
38994;SDS011;24769;18.712;99.000;2023-02-01T13:22:33;98.00;;;93.80;;
38994;SDS011;24769;18.712;99.000;2023-02-01T13:28:18;93.80;;;93.00;;
38994;SDS011;24769;18.712;99.000;2023-02-01T13:42:37;93.80;;;93.80;;
38994;SDS011;24769;18.712;99.000;2023-02-01T13:45:42;95.00;;;92.60;;
38994;SDS011;24769;18.712;99.000;2023-02-01T13:48:19;96.20;;;93.60;;
38994;SDS011;24769;18.712;99.000;2023-02-01T13:50:53;102.60;;;100.00;;
38994;SDS011;24769;18.712;99.000;2023-02-01T13:53:26;98.80;;;97.80;;
38994;SDS011;24769;18.712;99.000;2023-02-01T13:58:41;105.60;;;101.60;;
38994;SDS011;24769;18.712;99.000;2023-02-01T14:01:31;110.80;;;108.80;;
38994;SDS011;24769;18.712;99.000;2023-02-01T14:04:06;104.80;;;101.40;;
38994;SDS011;24769;18.712;99.000;2023-02-01T14:06:53;98.20;;;96.60;;
38994;SDS011;24769;18.712;99.000;2023-02-01T14:09:39;95.00;;;94.80;;
38994;SDS011;24769;18.712;99.000;2023-02-01T14:15:21;95.20;;;92.80;;
38994;SDS011;24769;18.712;99.000;2023-02-01T14:17:50;102.20;;;101.60;;
38994;SDS011;24769;18.712;99.000;2023-02-01T14:23:11;100.80;;;97.60;;
38994;SDS011;24769;18.712;99.000;2023-02-01T14:25:41;101.80;;;99.60;;
38994;SDS011;24769;18.712;99.000;2023-02-01T14:28:28;103.60;;;100.60;;
38994;SDS011;24769;18.712;99.000;2023-02-01T14:30:56;99.20;;;98.60;;
38994;SDS011;24769;18.712;99.000;2023-02-01T14:33:25;109.40;;;107.20;;
38994;SDS011;24769;18.712;99.000;2023-02-01T14:35:59;111.40;;;109.40;;
38994;SDS011;24769;18.712;99.000;2023-02-01T14:38:33;136.80;;;134.80;;
38994;SDS011;24769;18.712;99.000;2023-02-01T14:44:12;166.50;;;162.00;;
38994;SDS011;24769;18.712;99.000;2023-02-01T14:52:37;147.20;;;142.40;;
38994;SDS011;24769;18.712;99.000;2023-02-01T14:57:55;128.80;;;125.20;;
38994;SDS011;24769;18.712;99.000;2023-02-01T15:00:29;136.60;;;133.80;;
38994;SDS011;24769;18.712;99.000;2023-02-01T15:06:41;124.80;;;122.20;;
38994;SDS011;24769;18.712;99.000;2023-02-01T15:14:37;125.40;;;124.20;;
38994;SDS011;24769;18.712;99.000;2023-02-01T15:17:25;118.20;;;116.00;;
38994;SDS011;24769;18.712;99.000;2023-02-01T15:20:16;125.20;;;121.40;;
38994;SDS011;24769;18.712;99.000;2023-02-01T15:23:00;116.60;;;114.00;;
38994;SDS011;24769;18.712;99.000;2023-02-01T15:25:36;129.40;;;123.80;;
38994;SDS011;24769;18.712;99.000;2023-02-01T15:28:04;125.80;;;122.00;;
38994;SDS011;24769;18.712;99.000;2023-02-01T15:30:36;119.80;;;118.80;;
38994;SDS011;24769;18.712;99.000;2023-02-01T15:35:41;121.20;;;116.80;;
38994;SDS011;24769;18.712;99.000;2023-02-01T15:38:30;128.00;;;124.00;;
38994;SDS011;24769;18.712;99.000;2023-02-01T15:46:15;127.00;;;123.80;;
38994;SDS011;24769;18.712;99.000;2023-02-01T15:48:48;125.20;;;121.60;;
38994;SDS011;24769;18.712;99.000;2023-02-01T15:51:18;123.60;;;120.40;;
38994;SDS011;24769;18.712;99.000;2023-02-01T15:53:51;127.00;;;126.40;;
38994;SDS011;24769;18.712;99.000;2023-02-01T15:56:25;117.40;;;113.80;;
38994;SDS011;24769;18.712;99.000;2023-02-01T15:59:03;125.40;;;122.00;;
38994;SDS011;24769;18.712;99.000;2023-02-01T16:01:38;121.40;;;119.20;;
38994;SDS011;24769;18.712;99.000;2023-02-01T16:04:26;119.00;;;116.80;;
38994;SDS011;24769;18.712;99.000;2023-02-01T16:07:01;118.40;;;117.80;;
38994;SDS011;24769;18.712;99.000;2023-02-01T16:09:37;124.60;;;122.80;;
38994;SDS011;24769;18.712;99.000;2023-02-01T16:12:22;121.60;;;119.60;;
38994;SDS011;24769;18.712;99.000;2023-02-01T16:15:10;121.80;;;121.20;;
38994;SDS011;24769;18.712;99.000;2023-02-01T16:17:37;125.20;;;123.60;;
38994;SDS011;24769;18.712;99.000;2023-02-01T16:20:03;124.00;;;122.40;;
38994;SDS011;24769;18.712;99.000;2023-02-01T16:22:31;122.60;;;121.00;;
38994;SDS011;24769;18.712;99.000;2023-02-01T16:24:57;123.00;;;120.40;;
38994;SDS011;24769;18.712;99.000;2023-02-01T16:27:23;124.60;;;121.80;;
38994;SDS011;24769;18.712;99.000;2023-02-01T16:29:50;121.60;;;119.00;;
38994;SDS011;24769;18.712;99.000;2023-02-01T16:32:21;126.80;;;124.40;;
38994;SDS011;24769;18.712;99.000;2023-02-01T16:34:48;119.00;;;116.00;;
38994;SDS011;24769;18.712;99.000;2023-02-01T16:37:24;119.60;;;117.00;;
38994;SDS011;24769;18.712;99.000;2023-02-01T16:39:53;121.40;;;117.80;;
38994;SDS011;24769;18.712;99.000;2023-02-01T16:42:19;121.40;;;118.20;;
38994;SDS011;24769;18.712;99.000;2023-02-01T16:44:46;115.20;;;112.80;;
38994;SDS011;24769;18.712;99.000;2023-02-01T16:47:20;128.40;;;127.20;;
38994;SDS011;24769;18.712;99.000;2023-02-01T16:49:48;123.40;;;118.00;;
38994;SDS011;24769;18.712;99.000;2023-02-01T16:52:16;110.40;;;107.20;;
38994;SDS011;24769;18.712;99.000;2023-02-01T16:54:45;126.40;;;123.80;;
38994;SDS011;24769;18.712;99.000;2023-02-01T16:57:13;134.40;;;129.20;;
38994;SDS011;24769;18.712;99.000;2023-02-01T16:59:43;119.80;;;119.20;;
38994;SDS011;24769;18.712;99.000;2023-02-01T17:02:11;125.80;;;124.60;;
38994;SDS011;24769;18.712;99.000;2023-02-01T17:04:39;130.40;;;128.20;;
38994;SDS011;24769;18.712;99.000;2023-02-01T17:07:06;122.20;;;119.20;;
38994;SDS011;24769;18.712;99.000;2023-02-01T17:09:38;130.80;;;129.00;;
38994;SDS011;24769;18.712;99.000;2023-02-01T17:12:05;106.60;;;105.80;;
38994;SDS011;24769;18.712;99.000;2023-02-01T17:14:34;124.20;;;121.80;;
38994;SDS011;24769;18.712;99.000;2023-02-01T17:17:05;121.40;;;117.40;;